sensor_id;sensor_type;location;lat;lon;timestamp;temperature;humidity
7512;DHT22;9999;48.780;9.146;2022-10-16T00:00:37;15.10;99.90
7512;DHT22;9999;48.780;9.146;2022-10-16T00:03:07;15.20;99.90
7512;DHT22;9999;48.780;9.146;2022-10-16T00:05:38;15.20;99.90
7512;DHT22;9999;48.780;9.146;2022-10-16T00:08:06;15.20;99.90
7512;DHT22;9999;48.780;9.146;2022-10-16T00:10:33;15.30;99.90
7512;DHT22;9999;48.780;9.146;2022-10-16T00:13:00;15.30;99.90
7512;DHT22;9999;48.780;9.146;2022-10-16T00:15:27;15.30;99.90
7512;DHT22;9999;48.780;9.146;2022-10-16T00:17:54;15.20;99.90
7512;DHT22;9999;48.780;9.146;2022-10-16T00:20:22;15.20;99.90
7512;DHT22;9999;48.780;9.146;2022-10-16T00:22:49;15.20;99.90
7512;DHT22;9999;48.780;9.146;2022-10-16T00:25:16;15.10;99.90
7512;DHT22;9999;48.780;9.146;2022-10-16T00:27:42;15.10;99.90
7512;DHT22;9999;48.780;9.146;2022-10-16T00:30:09;15.00;99.90
7512;DHT22;9999;48.780;9.146;2022-10-16T00:32:36;15.00;99.90
7512;DHT22;9999;48.780;9.146;2022-10-16T00:35:04;15.00;99.90
7512;DHT22;9999;48.780;9.146;2022-10-16T00:37:32;15.00;99.90
7512;DHT22;9999;48.780;9.146;2022-10-16T00:39:59;14.90;99.90
7512;DHT22;9999;48.780;9.146;2022-10-16T00:42:26;14.90;99.90
7512;DHT22;9999;48.780;9.146;2022-10-16T00:44:55;14.90;99.90
7512;DHT22;9999;48.780;9.146;2022-10-16T00:47:26;15.00;99.90
7512;DHT22;9999;48.780;9.146;2022-10-16T00:49:59;15.00;99.90
7512;DHT22;9999;48.780;9.146;2022-10-16T00:52:27;15.00;99.90
7512;DHT22;9999;48.780;9.146;2022-10-16T00:54:56;15.00;99.90
7512;DHT22;9999;48.780;9.146;2022-10-16T00:57:24;15.00;99.90
7512;DHT22;9999;48.780;9.146;2022-10-16T00:59:52;15.00;99.90
7512;DHT22;9999;48.780;9.146;2022-10-16T01:02:19;15.00;99.90
7512;DHT22;9999;48.780;9.146;2022-10-16T01:04:48;15.00;99.90
7512;DHT22;9999;48.780;9.146;2022-10-16T01:07:30;15.00;99.90
7512;DHT22;9999;48.780;9.146;2022-10-16T01:10:07;15.00;99.90
7512;DHT22;9999;48.780;9.146;2022-10-16T01:12:41;15.10;99.90
7512;DHT22;9999;48.780;9.146;2022-10-16T01:15:14;15.00;99.90
7512;DHT22;9999;48.780;9.146;2022-10-16T01:17:46;15.00;99.90
7512;DHT22;9999;48.780;9.146;2022-10-16T01:20:21;15.00;99.90
7512;DHT22;9999;48.780;9.146;2022-10-16T01:23:03;15.00;99.90
7512;DHT22;9999;48.780;9.146;2022-10-16T01:25:55;15.00;99.90
7512;DHT22;9999;48.780;9.146;2022-10-16T01:28:27;15.00;99.90
7512;DHT22;9999;48.780;9.146;2022-10-16T01:30:58;15.00;99.90
7512;DHT22;9999;48.780;9.146;2022-10-16T01:33:30;15.00;99.90
7512;DHT22;9999;48.780;9.146;2022-10-16T01:36:03;15.00;99.90
7512;DHT22;9999;48.780;9.146;2022-10-16T01:38:35;15.00;99.90
7512;DHT22;9999;48.780;9.146;2022-10-16T01:41:06;15.00;99.90
7512;DHT22;9999;48.780;9.146;2022-10-16T01:43:38;15.00;99.90
7512;DHT22;9999;48.780;9.146;2022-10-16T01:46:06;15.00;99.90
7512;DHT22;9999;48.780;9.146;2022-10-16T01:48:34;15.00;99.90
7512;DHT22;9999;48.780;9.146;2022-10-16T01:51:06;15.00;99.90
7512;DHT22;9999;48.780;9.146;2022-10-16T01:53:36;14.90;99.90
7512;DHT22;9999;48.780;9.146;2022-10-16T01:56:05;14.90;99.90
7512;DHT22;9999;48.780;9.146;2022-10-16T01:58:39;14.90;99.90
7512;DHT22;9999;48.780;9.146;2022-10-16T02:01:08;14.90;99.90
7512;DHT22;9999;48.780;9.146;2022-10-16T02:03:38;14.90;99.90
7512;DHT22;9999;48.780;9.146;2022-10-16T02:06:07;14.90;99.90
7512;DHT22;9999;48.780;9.146;2022-10-16T02:08:34;15.00;99.90
7512;DHT22;9999;48.780;9.146;2022-10-16T02:11:01;15.00;99.90
7512;DHT22;9999;48.780;9.146;2022-10-16T02:13:32;14.90;99.90
7512;DHT22;9999;48.780;9.146;2022-10-16T02:16:01;14.90;99.90
7512;DHT22;9999;48.780;9.146;2022-10-16T02:18:28;14.90;99.90
7512;DHT22;9999;48.780;9.146;2022-10-16T02:20:59;15.00;99.90
7512;DHT22;9999;48.780;9.146;2022-10-16T02:23:33;15.00;99.90
7512;DHT22;9999;48.780;9.146;2022-10-16T02:26:03;15.00;99.90
7512;DHT22;9999;48.780;9.146;2022-10-16T02:28:35;15.00;99.90
7512;DHT22;9999;48.780;9.146;2022-10-16T02:31:09;15.00;99.90
7512;DHT22;9999;48.780;9.146;2022-10-16T02:33:38;15.00;99.90
7512;DHT22;9999;48.780;9.146;2022-10-16T02:36:07;15.00;99.90
7512;DHT22;9999;48.780;9.146;2022-10-16T02:38:34;15.00;99.90
7512;DHT22;9999;48.780;9.146;2022-10-16T02:41:03;14.90;99.90
7512;DHT22;9999;48.780;9.146;2022-10-16T02:43:30;14.90;99.90
7512;DHT22;9999;48.780;9.146;2022-10-16T02:45:59;14.90;99.90
7512;DHT22;9999;48.780;9.146;2022-10-16T02:48:27;14.90;99.90
7512;DHT22;9999;48.780;9.146;2022-10-16T02:50:54;14.90;99.90
7512;DHT22;9999;48.780;9.146;2022-10-16T02:53:20;15.00;99.90
7512;DHT22;9999;48.780;9.146;2022-10-16T02:55:47;14.90;99.90
7512;DHT22;9999;48.780;9.146;2022-10-16T02:58:14;14.90;99.90
7512;DHT22;9999;48.780;9.146;2022-10-16T03:00:41;14.90;99.90
7512;DHT22;9999;48.780;9.146;2022-10-16T03:03:08;14.90;99.90
7512;DHT22;9999;48.780;9.146;2022-10-16T03:05:36;14.90;99.90
7512;DHT22;9999;48.780;9.146;2022-10-16T03:08:03;14.80;99.90
7512;DHT22;9999;48.780;9.146;2022-10-16T03:10:30;14.80;99.90
7512;DHT22;9999;48.780;9.146;2022-10-16T03:12:57;14.90;99.90
7512;DHT22;9999;48.780;9.146;2022-10-16T03:15:24;14.80;99.90
7512;DHT22;9999;48.780;9.146;2022-10-16T03:17:51;14.90;99.90
7512;DHT22;9999;48.780;9.146;2022-10-16T03:20:18;14.80;99.90
7512;DHT22;9999;48.780;9.146;2022-10-16T03:22:46;14.80;99.90
7512;DHT22;9999;48.780;9.146;2022-10-16T03:25:13;14.80;99.90
7512;DHT22;9999;48.780;9.146;2022-10-16T03:27:40;14.90;99.90
7512;DHT22;9999;48.780;9.146;2022-10-16T03:30:08;15.00;99.90
7512;DHT22;9999;48.780;9.146;2022-10-16T03:32:35;15.00;99.90
7512;DHT22;9999;48.780;9.146;2022-10-16T03:35:02;15.00;99.90
7512;DHT22;9999;48.780;9.146;2022-10-16T03:37:29;15.10;99.90
7512;DHT22;9999;48.780;9.146;2022-10-16T03:39:57;15.00;99.90
7512;DHT22;9999;48.780;9.146;2022-10-16T03:42:24;15.00;99.90
7512;DHT22;9999;48.780;9.146;2022-10-16T03:44:51;15.00;99.90
7512;DHT22;9999;48.780;9.146;2022-10-16T03:47:18;15.00;99.90
7512;DHT22;9999;48.780;9.146;2022-10-16T03:49:47;15.00;99.90
7512;DHT22;9999;48.780;9.146;2022-10-16T03:52:14;15.00;99.90
7512;DHT22;9999;48.780;9.146;2022-10-16T03:54:41;15.00;99.90
7512;DHT22;9999;48.780;9.146;2022-10-16T03:57:09;15.00;99.90
7512;DHT22;9999;48.780;9.146;2022-10-16T03:59:36;15.00;99.90
7512;DHT22;9999;48.780;9.146;2022-10-16T04:02:02;15.00;99.90
7512;DHT22;9999;48.780;9.146;2022-10-16T04:04:29;15.00;99.90
7512;DHT22;9999;48.780;9.146;2022-10-16T04:06:56;14.90;99.90
7512;DHT22;9999;48.780;9.146;2022-10-16T04:09:23;14.90;99.90
7512;DHT22;9999;48.780;9.146;2022-10-16T04:11:49;15.00;99.90
7512;DHT22;9999;48.780;9.146;2022-10-16T04:14:18;15.00;99.90
7512;DHT22;9999;48.780;9.146;2022-10-16T04:16:45;14.90;99.90
7512;DHT22;9999;48.780;9.146;2022-10-16T04:19:12;14.90;99.90
7512;DHT22;9999;48.780;9.146;2022-10-16T04:21:39;15.00;99.90
7512;DHT22;9999;48.780;9.146;2022-10-16T04:24:05;15.00;99.90
7512;DHT22;9999;48.780;9.146;2022-10-16T04:26:33;14.90;99.90
7512;DHT22;9999;48.780;9.146;2022-10-16T04:28:59;14.90;99.90
7512;DHT22;9999;48.780;9.146;2022-10-16T04:31:28;14.90;99.90
7512;DHT22;9999;48.780;9.146;2022-10-16T04:33:54;14.90;99.90
7512;DHT22;9999;48.780;9.146;2022-10-16T04:36:21;14.90;99.90
7512;DHT22;9999;48.780;9.146;2022-10-16T04:38:48;14.90;99.90
7512;DHT22;9999;48.780;9.146;2022-10-16T04:41:15;14.90;99.90
7512;DHT22;9999;48.780;9.146;2022-10-16T04:43:42;14.90;99.90
7512;DHT22;9999;48.780;9.146;2022-10-16T04:46:09;14.90;99.90
7512;DHT22;9999;48.780;9.146;2022-10-16T04:48:37;14.90;99.90
7512;DHT22;9999;48.780;9.146;2022-10-16T04:51:04;14.90;99.90
7512;DHT22;9999;48.780;9.146;2022-10-16T04:53:31;14.90;99.90
7512;DHT22;9999;48.780;9.146;2022-10-16T04:55:58;14.90;99.90
7512;DHT22;9999;48.780;9.146;2022-10-16T04:58:25;14.90;99.90
7512;DHT22;9999;48.780;9.146;2022-10-16T05:00:52;14.80;99.90
7512;DHT22;9999;48.780;9.146;2022-10-16T05:03:19;14.80;99.90
7512;DHT22;9999;48.780;9.146;2022-10-16T05:05:47;14.90;99.90
7512;DHT22;9999;48.780;9.146;2022-10-16T05:08:15;14.90;99.90
7512;DHT22;9999;48.780;9.146;2022-10-16T05:10:43;14.80;99.90
7512;DHT22;9999;48.780;9.146;2022-10-16T05:13:11;14.80;99.90
7512;DHT22;9999;48.780;9.146;2022-10-16T05:15:38;14.90;99.90
7512;DHT22;9999;48.780;9.146;2022-10-16T05:18:05;14.90;99.90
7512;DHT22;9999;48.780;9.146;2022-10-16T05:20:31;14.90;99.90
7512;DHT22;9999;48.780;9.146;2022-10-16T05:23:00;14.90;99.90
7512;DHT22;9999;48.780;9.146;2022-10-16T05:25:27;14.90;99.90
7512;DHT22;9999;48.780;9.146;2022-10-16T05:27:53;14.90;99.90
7512;DHT22;9999;48.780;9.146;2022-10-16T05:30:22;14.90;99.90
7512;DHT22;9999;48.780;9.146;2022-10-16T05:32:50;14.90;99.90
7512;DHT22;9999;48.780;9.146;2022-10-16T05:35:18;14.90;99.90
7512;DHT22;9999;48.780;9.146;2022-10-16T05:37:45;14.90;99.90
7512;DHT22;9999;48.780;9.146;2022-10-16T05:40:14;14.90;99.90
7512;DHT22;9999;48.780;9.146;2022-10-16T05:42:41;14.90;99.90
7512;DHT22;9999;48.780;9.146;2022-10-16T05:45:10;14.90;99.90
7512;DHT22;9999;48.780;9.146;2022-10-16T05:47:37;14.80;99.90
7512;DHT22;9999;48.780;9.146;2022-10-16T05:50:05;14.80;99.90
7512;DHT22;9999;48.780;9.146;2022-10-16T05:52:32;14.80;99.90
7512;DHT22;9999;48.780;9.146;2022-10-16T05:54:58;14.80;99.90
7512;DHT22;9999;48.780;9.146;2022-10-16T05:57:27;14.80;99.90
7512;DHT22;9999;48.780;9.146;2022-10-16T05:59:54;14.80;99.90
7512;DHT22;9999;48.780;9.146;2022-10-16T06:02:20;14.80;99.90
7512;DHT22;9999;48.780;9.146;2022-10-16T06:04:47;14.80;99.90
7512;DHT22;9999;48.780;9.146;2022-10-16T06:07:14;14.80;99.90
7512;DHT22;9999;48.780;9.146;2022-10-16T06:09:41;14.80;99.90
7512;DHT22;9999;48.780;9.146;2022-10-16T06:12:08;14.80;99.90
7512;DHT22;9999;48.780;9.146;2022-10-16T06:14:36;14.90;99.90
7512;DHT22;9999;48.780;9.146;2022-10-16T06:17:03;14.90;99.90
7512;DHT22;9999;48.780;9.146;2022-10-16T06:19:29;14.90;99.90
7512;DHT22;9999;48.780;9.146;2022-10-16T06:21:57;14.90;99.90
7512;DHT22;9999;48.780;9.146;2022-10-16T06:24:24;14.90;99.90
7512;DHT22;9999;48.780;9.146;2022-10-16T06:26:51;14.90;99.90
7512;DHT22;9999;48.780;9.146;2022-10-16T06:29:18;14.90;99.90
7512;DHT22;9999;48.780;9.146;2022-10-16T06:31:46;14.90;99.90
7512;DHT22;9999;48.780;9.146;2022-10-16T06:34:13;14.90;99.90
7512;DHT22;9999;48.780;9.146;2022-10-16T06:36:40;14.90;99.90
7512;DHT22;9999;48.780;9.146;2022-10-16T06:39:07;14.90;99.90
7512;DHT22;9999;48.780;9.146;2022-10-16T06:41:34;14.90;99.90
7512;DHT22;9999;48.780;9.146;2022-10-16T06:44:14;15.00;99.90
7512;DHT22;9999;48.780;9.146;2022-10-16T06:46:40;15.00;99.90
7512;DHT22;9999;48.780;9.146;2022-10-16T06:49:09;15.00;99.90
7512;DHT22;9999;48.780;9.146;2022-10-16T06:51:36;15.10;99.90
7512;DHT22;9999;48.780;9.146;2022-10-16T06:54:06;15.20;99.90
7512;DHT22;9999;48.780;9.146;2022-10-16T06:56:33;15.20;99.90
7512;DHT22;9999;48.780;9.146;2022-10-16T06:59:01;15.20;99.90
7512;DHT22;9999;48.780;9.146;2022-10-16T07:01:28;15.20;99.90
7512;DHT22;9999;48.780;9.146;2022-10-16T07:03:55;15.20;99.90
7512;DHT22;9999;48.780;9.146;2022-10-16T07:06:25;15.30;99.90
7512;DHT22;9999;48.780;9.146;2022-10-16T07:08:52;15.30;99.90
7512;DHT22;9999;48.780;9.146;2022-10-16T07:11:20;15.30;99.90
7512;DHT22;9999;48.780;9.146;2022-10-16T07:13:51;15.40;99.90
7512;DHT22;9999;48.780;9.146;2022-10-16T07:16:19;15.40;99.90
7512;DHT22;9999;48.780;9.146;2022-10-16T07:18:47;15.40;99.90
7512;DHT22;9999;48.780;9.146;2022-10-16T07:21:16;15.40;99.90
7512;DHT22;9999;48.780;9.146;2022-10-16T07:23:44;15.50;99.90
7512;DHT22;9999;48.780;9.146;2022-10-16T07:26:12;15.50;99.90
7512;DHT22;9999;48.780;9.146;2022-10-16T07:28:38;15.50;99.90
7512;DHT22;9999;48.780;9.146;2022-10-16T07:31:06;15.50;99.90
7512;DHT22;9999;48.780;9.146;2022-10-16T07:33:34;15.60;99.90
7512;DHT22;9999;48.780;9.146;2022-10-16T07:36:01;15.60;99.90
7512;DHT22;9999;48.780;9.146;2022-10-16T07:38:28;15.60;99.90
7512;DHT22;9999;48.780;9.146;2022-10-16T07:40:58;15.60;99.90
7512;DHT22;9999;48.780;9.146;2022-10-16T07:43:25;15.60;99.90
7512;DHT22;9999;48.780;9.146;2022-10-16T07:45:52;15.60;99.90
7512;DHT22;9999;48.780;9.146;2022-10-16T07:48:21;15.60;99.90
7512;DHT22;9999;48.780;9.146;2022-10-16T07:50:49;15.70;99.90
7512;DHT22;9999;48.780;9.146;2022-10-16T07:53:16;15.70;99.90
7512;DHT22;9999;48.780;9.146;2022-10-16T07:55:42;15.70;99.90
7512;DHT22;9999;48.780;9.146;2022-10-16T07:58:11;15.80;99.90
7512;DHT22;9999;48.780;9.146;2022-10-16T08:00:37;15.80;99.90
7512;DHT22;9999;48.780;9.146;2022-10-16T08:03:04;15.80;99.90
7512;DHT22;9999;48.780;9.146;2022-10-16T08:05:35;15.80;99.90
7512;DHT22;9999;48.780;9.146;2022-10-16T08:08:02;15.90;99.90
7512;DHT22;9999;48.780;9.146;2022-10-16T08:10:29;15.90;99.90
7512;DHT22;9999;48.780;9.146;2022-10-16T08:12:57;15.90;99.90
7512;DHT22;9999;48.780;9.146;2022-10-16T08:15:25;16.00;99.90
7512;DHT22;9999;48.780;9.146;2022-10-16T08:17:57;16.10;99.90
7512;DHT22;9999;48.780;9.146;2022-10-16T08:20:24;16.20;99.90
7512;DHT22;9999;48.780;9.146;2022-10-16T08:22:51;16.30;99.90
7512;DHT22;9999;48.780;9.146;2022-10-16T08:25:18;16.40;99.90
7512;DHT22;9999;48.780;9.146;2022-10-16T08:27:45;16.50;99.90
7512;DHT22;9999;48.780;9.146;2022-10-16T08:30:15;16.60;99.90
7512;DHT22;9999;48.780;9.146;2022-10-16T08:32:44;16.70;99.90
7512;DHT22;9999;48.780;9.146;2022-10-16T08:35:12;16.70;99.90
7512;DHT22;9999;48.780;9.146;2022-10-16T08:37:39;16.80;99.90
7512;DHT22;9999;48.780;9.146;2022-10-16T08:40:15;16.80;99.90
7512;DHT22;9999;48.780;9.146;2022-10-16T08:42:55;16.70;99.90
7512;DHT22;9999;48.780;9.146;2022-10-16T08:45:36;16.80;99.90
7512;DHT22;9999;48.780;9.146;2022-10-16T08:48:17;16.80;99.90
7512;DHT22;9999;48.780;9.146;2022-10-16T08:50:47;16.90;99.90
7512;DHT22;9999;48.780;9.146;2022-10-16T08:53:18;16.90;99.90
7512;DHT22;9999;48.780;9.146;2022-10-16T08:55:49;16.90;99.90
7512;DHT22;9999;48.780;9.146;2022-10-16T08:58:18;16.90;99.90
7512;DHT22;9999;48.780;9.146;2022-10-16T09:00:47;16.90;99.90
7512;DHT22;9999;48.780;9.146;2022-10-16T09:03:25;16.90;99.90
7512;DHT22;9999;48.780;9.146;2022-10-16T09:06:05;17.00;99.90
7512;DHT22;9999;48.780;9.146;2022-10-16T09:08:41;17.10;99.90
7512;DHT22;9999;48.780;9.146;2022-10-16T09:11:14;17.10;99.90
7512;DHT22;9999;48.780;9.146;2022-10-16T09:13:51;17.20;99.90
7512;DHT22;9999;48.780;9.146;2022-10-16T09:16:29;17.30;99.90
7512;DHT22;9999;48.780;9.146;2022-10-16T09:19:03;17.30;99.90
7512;DHT22;9999;48.780;9.146;2022-10-16T09:21:35;17.40;99.90
7512;DHT22;9999;48.780;9.146;2022-10-16T09:24:11;17.50;99.90
7512;DHT22;9999;48.780;9.146;2022-10-16T09:26:40;17.60;99.90
7512;DHT22;9999;48.780;9.146;2022-10-16T09:29:09;17.60;99.90
7512;DHT22;9999;48.780;9.146;2022-10-16T09:31:36;17.70;99.90
7512;DHT22;9999;48.780;9.146;2022-10-16T09:34:08;17.70;99.90
7512;DHT22;9999;48.780;9.146;2022-10-16T09:36:42;17.70;99.90
7512;DHT22;9999;48.780;9.146;2022-10-16T09:39:11;17.80;99.90
7512;DHT22;9999;48.780;9.146;2022-10-16T09:41:41;17.70;99.90
7512;DHT22;9999;48.780;9.146;2022-10-16T09:44:19;17.70;99.90
7512;DHT22;9999;48.780;9.146;2022-10-16T09:46:47;17.70;99.90
7512;DHT22;9999;48.780;9.146;2022-10-16T09:49:23;17.60;99.90
7512;DHT22;9999;48.780;9.146;2022-10-16T09:52:02;17.60;99.90
7512;DHT22;9999;48.780;9.146;2022-10-16T09:54:29;17.70;99.90
7512;DHT22;9999;48.780;9.146;2022-10-16T09:57:04;18.00;99.90
7512;DHT22;9999;48.780;9.146;2022-10-16T09:59:32;18.20;99.90
7512;DHT22;9999;48.780;9.146;2022-10-16T10:02:03;18.30;99.90
7512;DHT22;9999;48.780;9.146;2022-10-16T10:04:40;18.40;99.90
7512;DHT22;9999;48.780;9.146;2022-10-16T10:07:17;18.50;99.90
7512;DHT22;9999;48.780;9.146;2022-10-16T10:09:45;18.60;99.90
7512;DHT22;9999;48.780;9.146;2022-10-16T10:12:21;18.60;99.90
7512;DHT22;9999;48.780;9.146;2022-10-16T10:14:52;18.70;99.90
7512;DHT22;9999;48.780;9.146;2022-10-16T10:17:21;18.80;99.90
7512;DHT22;9999;48.780;9.146;2022-10-16T10:19:52;18.90;99.90
7512;DHT22;9999;48.780;9.146;2022-10-16T10:22:26;18.90;99.90
7512;DHT22;9999;48.780;9.146;2022-10-16T10:25:12;18.90;99.90
7512;DHT22;9999;48.780;9.146;2022-10-16T10:27:48;19.00;99.90
7512;DHT22;9999;48.780;9.146;2022-10-16T10:30:22;19.10;99.90
7512;DHT22;9999;48.780;9.146;2022-10-16T10:33:06;19.20;99.90
7512;DHT22;9999;48.780;9.146;2022-10-16T10:35:42;19.40;99.90
7512;DHT22;9999;48.780;9.146;2022-10-16T10:38:25;19.50;99.90
7512;DHT22;9999;48.780;9.146;2022-10-16T10:41:01;19.60;99.90
7512;DHT22;9999;48.780;9.146;2022-10-16T10:43:44;19.70;99.90
7512;DHT22;9999;48.780;9.146;2022-10-16T10:46:21;19.90;99.90
7512;DHT22;9999;48.780;9.146;2022-10-16T10:49:05;19.90;99.90
7512;DHT22;9999;48.780;9.146;2022-10-16T10:51:40;20.10;99.90
7512;DHT22;9999;48.780;9.146;2022-10-16T10:54:15;20.30;99.90
7512;DHT22;9999;48.780;9.146;2022-10-16T10:56:50;20.50;99.90
7512;DHT22;9999;48.780;9.146;2022-10-16T10:59:32;20.60;99.90
7512;DHT22;9999;48.780;9.146;2022-10-16T11:02:10;20.80;99.90
7512;DHT22;9999;48.780;9.146;2022-10-16T11:07:45;20.90;99.90
7512;DHT22;9999;48.780;9.146;2022-10-16T11:10:18;20.90;99.90
7512;DHT22;9999;48.780;9.146;2022-10-16T11:12:50;20.70;99.90
7512;DHT22;9999;48.780;9.146;2022-10-16T11:15:22;20.60;99.90
7512;DHT22;9999;48.780;9.146;2022-10-16T11:17:53;20.70;99.90
7512;DHT22;9999;48.780;9.146;2022-10-16T11:20:23;20.80;99.90
7512;DHT22;9999;48.780;9.146;2022-10-16T11:22:55;20.90;99.90
7512;DHT22;9999;48.780;9.146;2022-10-16T11:25:26;21.10;99.90
7512;DHT22;9999;48.780;9.146;2022-10-16T11:28:00;21.30;99.90
7512;DHT22;9999;48.780;9.146;2022-10-16T11:30:33;21.40;99.90
7512;DHT22;9999;48.780;9.146;2022-10-16T11:33:25;21.50;99.90
7512;DHT22;9999;48.780;9.146;2022-10-16T11:36:00;21.50;99.90
7512;DHT22;9999;48.780;9.146;2022-10-16T11:38:34;21.50;99.90
7512;DHT22;9999;48.780;9.146;2022-10-16T11:41:12;21.50;99.90
7512;DHT22;9999;48.780;9.146;2022-10-16T11:43:48;21.50;99.90
7512;DHT22;9999;48.780;9.146;2022-10-16T11:46:17;21.70;99.90
7512;DHT22;9999;48.780;9.146;2022-10-16T11:48:49;21.90;99.90
7512;DHT22;9999;48.780;9.146;2022-10-16T11:51:24;22.20;99.90
7512;DHT22;9999;48.780;9.146;2022-10-16T11:53:59;22.30;99.90
7512;DHT22;9999;48.780;9.146;2022-10-16T11:56:30;22.60;99.90
7512;DHT22;9999;48.780;9.146;2022-10-16T11:59:00;22.80;99.90
7512;DHT22;9999;48.780;9.146;2022-10-16T12:01:33;22.80;99.90
7512;DHT22;9999;48.780;9.146;2022-10-16T12:04:14;22.80;99.90
7512;DHT22;9999;48.780;9.146;2022-10-16T12:06:45;22.90;99.90
7512;DHT22;9999;48.780;9.146;2022-10-16T12:09:21;22.90;99.90
7512;DHT22;9999;48.780;9.146;2022-10-16T12:11:48;22.80;99.90
7512;DHT22;9999;48.780;9.146;2022-10-16T12:17:04;22.90;99.90
7512;DHT22;9999;48.780;9.146;2022-10-16T12:19:58;23.10;99.90
7512;DHT22;9999;48.780;9.146;2022-10-16T12:22:28;23.10;99.90
7512;DHT22;9999;48.780;9.146;2022-10-16T12:24:57;23.10;99.90
7512;DHT22;9999;48.780;9.146;2022-10-16T12:27:27;23.20;99.90
7512;DHT22;9999;48.780;9.146;2022-10-16T12:29:56;23.20;99.90
7512;DHT22;9999;48.780;9.146;2022-10-16T12:32:29;23.40;99.90
7512;DHT22;9999;48.780;9.146;2022-10-16T12:34:57;23.20;99.90
7512;DHT22;9999;48.780;9.146;2022-10-16T12:37:27;23.10;99.90
7512;DHT22;9999;48.780;9.146;2022-10-16T12:39:57;23.00;99.90
7512;DHT22;9999;48.780;9.146;2022-10-16T12:42:33;22.80;99.90
7512;DHT22;9999;48.780;9.146;2022-10-16T12:45:02;22.80;99.90
7512;DHT22;9999;48.780;9.146;2022-10-16T12:47:49;22.80;99.90
7512;DHT22;9999;48.780;9.146;2022-10-16T12:50:25;22.60;99.90
7512;DHT22;9999;48.780;9.146;2022-10-16T12:52:52;22.60;99.90
7512;DHT22;9999;48.780;9.146;2022-10-16T12:55:22;22.60;99.90
7512;DHT22;9999;48.780;9.146;2022-10-16T13:00:44;22.20;99.90
7512;DHT22;9999;48.780;9.146;2022-10-16T13:03:50;22.20;99.90
7512;DHT22;9999;48.780;9.146;2022-10-16T13:06:28;22.10;99.90
7512;DHT22;9999;48.780;9.146;2022-10-16T13:09:13;22.10;99.90
7512;DHT22;9999;48.780;9.146;2022-10-16T13:12:05;22.10;99.90
7512;DHT22;9999;48.780;9.146;2022-10-16T13:14:55;22.10;99.90
7512;DHT22;9999;48.780;9.146;2022-10-16T13:17:30;22.10;99.90
7512;DHT22;9999;48.780;9.146;2022-10-16T13:20:06;22.00;99.90
7512;DHT22;9999;48.780;9.146;2022-10-16T13:22:44;22.00;99.90
7512;DHT22;9999;48.780;9.146;2022-10-16T13:25:22;22.10;99.90
7512;DHT22;9999;48.780;9.146;2022-10-16T13:27:55;22.20;99.90
7512;DHT22;9999;48.780;9.146;2022-10-16T13:30:25;22.00;99.90
7512;DHT22;9999;48.780;9.146;2022-10-16T13:32:58;22.00;99.90
7512;DHT22;9999;48.780;9.146;2022-10-16T13:35:27;22.00;99.90
7512;DHT22;9999;48.780;9.146;2022-10-16T13:38:04;22.00;99.90
7512;DHT22;9999;48.780;9.146;2022-10-16T13:40:31;21.90;99.90
7512;DHT22;9999;48.780;9.146;2022-10-16T13:43:01;21.90;99.90
7512;DHT22;9999;48.780;9.146;2022-10-16T13:45:28;21.80;99.90
7512;DHT22;9999;48.780;9.146;2022-10-16T13:48:05;21.70;99.90
7512;DHT22;9999;48.780;9.146;2022-10-16T13:50:32;21.70;99.90
7512;DHT22;9999;48.780;9.146;2022-10-16T13:53:05;21.70;99.90
7512;DHT22;9999;48.780;9.146;2022-10-16T13:55:33;21.50;99.90
7512;DHT22;9999;48.780;9.146;2022-10-16T13:58:11;21.50;99.90
7512;DHT22;9999;48.780;9.146;2022-10-16T14:00:39;21.60;99.90
7512;DHT22;9999;48.780;9.146;2022-10-16T14:03:11;21.60;99.90
7512;DHT22;9999;48.780;9.146;2022-10-16T14:05:43;21.70;99.90
7512;DHT22;9999;48.780;9.146;2022-10-16T14:08:11;21.70;99.90
7512;DHT22;9999;48.780;9.146;2022-10-16T14:10:42;21.70;99.90
7512;DHT22;9999;48.780;9.146;2022-10-16T14:13:18;21.60;99.90
7512;DHT22;9999;48.780;9.146;2022-10-16T14:15:47;21.50;99.90
7512;DHT22;9999;48.780;9.146;2022-10-16T14:18:20;21.30;99.90
7512;DHT22;9999;48.780;9.146;2022-10-16T14:20:48;21.30;99.90
7512;DHT22;9999;48.780;9.146;2022-10-16T14:23:22;21.30;99.90
7512;DHT22;9999;48.780;9.146;2022-10-16T14:25:49;21.30;99.90
7512;DHT22;9999;48.780;9.146;2022-10-16T14:28:20;21.30;99.90
7512;DHT22;9999;48.780;9.146;2022-10-16T14:30:51;21.30;99.90
7512;DHT22;9999;48.780;9.146;2022-10-16T14:33:22;21.30;99.90
7512;DHT22;9999;48.780;9.146;2022-10-16T14:36:02;21.30;99.90
7512;DHT22;9999;48.780;9.146;2022-10-16T14:38:30;21.30;99.90
7512;DHT22;9999;48.780;9.146;2022-10-16T14:40:58;21.20;99.90
7512;DHT22;9999;48.780;9.146;2022-10-16T14:43:32;21.20;99.90
7512;DHT22;9999;48.780;9.146;2022-10-16T14:46:02;21.20;99.90
7512;DHT22;9999;48.780;9.146;2022-10-16T14:48:29;21.10;99.90
7512;DHT22;9999;48.780;9.146;2022-10-16T14:50:56;21.10;99.90
7512;DHT22;9999;48.780;9.146;2022-10-16T14:53:23;21.10;99.90
7512;DHT22;9999;48.780;9.146;2022-10-16T14:55:50;21.10;99.90
7512;DHT22;9999;48.780;9.146;2022-10-16T14:58:19;21.10;99.90
7512;DHT22;9999;48.780;9.146;2022-10-16T15:00:48;21.10;99.90
7512;DHT22;9999;48.780;9.146;2022-10-16T15:03:16;21.10;99.90
7512;DHT22;9999;48.780;9.146;2022-10-16T15:05:43;21.10;99.90
7512;DHT22;9999;48.780;9.146;2022-10-16T15:08:10;21.20;99.90
7512;DHT22;9999;48.780;9.146;2022-10-16T15:10:40;21.10;99.90
7512;DHT22;9999;48.780;9.146;2022-10-16T15:13:11;21.20;99.90
7512;DHT22;9999;48.780;9.146;2022-10-16T15:15:41;21.20;99.90
7512;DHT22;9999;48.780;9.146;2022-10-16T15:18:10;21.20;99.90
7512;DHT22;9999;48.780;9.146;2022-10-16T15:20:38;21.20;99.90
7512;DHT22;9999;48.780;9.146;2022-10-16T15:23:10;21.20;99.90
7512;DHT22;9999;48.780;9.146;2022-10-16T15:25:42;21.20;99.90
7512;DHT22;9999;48.780;9.146;2022-10-16T15:28:10;21.20;99.90
7512;DHT22;9999;48.780;9.146;2022-10-16T15:30:38;21.10;99.90
7512;DHT22;9999;48.780;9.146;2022-10-16T15:33:08;21.10;99.90
7512;DHT22;9999;48.780;9.146;2022-10-16T15:35:37;20.90;99.90
7512;DHT22;9999;48.780;9.146;2022-10-16T15:38:04;20.80;99.90
7512;DHT22;9999;48.780;9.146;2022-10-16T15:40:31;20.70;99.90
7512;DHT22;9999;48.780;9.146;2022-10-16T15:42:58;20.60;99.90
7512;DHT22;9999;48.780;9.146;2022-10-16T15:45:25;20.50;99.90
7512;DHT22;9999;48.780;9.146;2022-10-16T15:47:51;20.50;99.90
7512;DHT22;9999;48.780;9.146;2022-10-16T15:50:19;20.40;99.90
7512;DHT22;9999;48.780;9.146;2022-10-16T15:52:48;20.40;99.90
7512;DHT22;9999;48.780;9.146;2022-10-16T15:55:16;20.30;99.90
7512;DHT22;9999;48.780;9.146;2022-10-16T15:57:44;20.20;99.90
7512;DHT22;9999;48.780;9.146;2022-10-16T16:00:17;20.20;99.90
7512;DHT22;9999;48.780;9.146;2022-10-16T16:02:50;20.10;99.90
7512;DHT22;9999;48.780;9.146;2022-10-16T16:05:17;20.00;99.90
7512;DHT22;9999;48.780;9.146;2022-10-16T16:07:44;20.00;99.90
7512;DHT22;9999;48.780;9.146;2022-10-16T16:10:12;19.90;99.90
7512;DHT22;9999;48.780;9.146;2022-10-16T16:12:39;19.90;99.90
7512;DHT22;9999;48.780;9.146;2022-10-16T16:15:08;19.80;99.90
7512;DHT22;9999;48.780;9.146;2022-10-16T16:17:35;19.60;99.90
7512;DHT22;9999;48.780;9.146;2022-10-16T16:20:03;19.50;99.90
7512;DHT22;9999;48.780;9.146;2022-10-16T16:22:30;19.40;99.90
7512;DHT22;9999;48.780;9.146;2022-10-16T16:24:57;19.30;99.90
7512;DHT22;9999;48.780;9.146;2022-10-16T16:27:25;19.20;99.90
7512;DHT22;9999;48.780;9.146;2022-10-16T16:29:55;19.20;99.90